Time;durP1;ratioP1;P1;durP2;ratioP2;P2;SDS_P1;SDS_P2;PMS_P1;PMS_P2;Temp;Humidity;BMP_temperature;BMP_pressure;BME280_temperature;BME280_humidity;BME280_pressure;Samples;Min_cycle;Max_cycle;Signal;HPM_P1;HPM_P2
2020/12/28 00:01:30;;;;;;;0.10;0.10;;;3.90;99.90;;;;;;5076364;28;20184;-77
2020/12/28 00:03:56;;;;;;;0.20;0.20;;;3.90;99.90;;;;;;5074042;28;20192;-77
2020/12/28 00:06:22;;;;;;;0.20;0.20;;;4.00;99.90;;;;;;5076130;28;20205;-77
2020/12/28 00:08:48;;;;;;;0.10;0.10;;;4.00;99.90;;;;;;5077184;28;20239;-77
2020/12/28 00:11:19;;;;;;;0.10;0.10;;;4.00;99.90;;;;;;5075899;28;20190;-76
2020/12/28 00:13:45;;;;;;;0.20;0.20;;;4.00;99.90;;;;;;5076450;28;20264;-76
2020/12/28 00:16:12;;;;;;;0.20;0.20;;;3.90;99.90;;;;;;5076064;28;20219;-76
2020/12/28 00:18:38;;;;;;;0.30;0.30;;;3.90;99.90;;;;;;5074440;28;20205;-76
2020/12/28 00:21:04;;;;;;;0.20;0.20;;;4.00;99.90;;;;;;5074591;28;20180;-76
2020/12/28 00:23:29;;;;;;;0.20;0.20;;;4.00;99.90;;;;;;5074558;28;20258;-77
2020/12/28 00:25:55;;;;;;;0.20;0.20;;;4.00;99.90;;;;;;5074394;28;20201;-77
2020/12/28 00:28:20;;;;;;;0.30;0.20;;;3.90;99.90;;;;;;5076222;28;20268;-76
2020/12/28 00:30:46;;;;;;;0.20;0.20;;;4.00;99.90;;;;;;5076080;28;20215;-78
2020/12/28 00:33:12;;;;;;;0.10;0.10;;;4.00;99.90;;;;;;5076715;28;20181;-75
2020/12/28 00:35:37;;;;;;;0.20;0.20;;;4.00;99.90;;;;;;5074349;28;20215;-77
2020/12/28 00:38:03;;;;;;;0.20;0.20;;;4.00;99.90;;;;;;5075420;28;20197;-77
2020/12/28 00:40:28;;;;;;;0.20;0.20;;;4.10;99.90;;;;;;5075677;28;20567;-77
2020/12/28 00:42:54;;;;;;;0.40;0.40;;;4.10;99.90;;;;;;5075840;28;20173;-76
2020/12/28 00:45:20;;;;;;;0.10;0.10;;;4.10;99.90;;;;;;5074256;28;20209;-77
2020/12/28 00:47:45;;;;;;;0.10;0.10;;;4.00;99.90;;;;;;5075924;28;20300;-77
2020/12/28 00:50:11;;;;;;;0.20;0.20;;;4.10;99.90;;;;;;5074711;28;20185;-77
2020/12/28 00:52:36;;;;;;;0.10;0.10;;;4.10;99.90;;;;;;5077221;28;20212;-77
2020/12/28 00:55:02;;;;;;;0.40;0.20;;;4.10;99.90;;;;;;5077721;28;20213;-76
2020/12/28 00:57:27;;;;;;;0.20;0.20;;;4.10;99.90;;;;;;5075967;28;20270;-76
2020/12/28 00:59:53;;;;;;;0.10;0.10;;;4.10;99.90;;;;;;5075883;28;20262;-76
2020/12/28 01:02:18;;;;;;;0.10;0.10;;;4.10;99.90;;;;;;5075611;28;20269;-77
2020/12/28 01:04:44;;;;;;;0.20;0.17;;;4.10;99.90;;;;;;5077691;28;20204;-77
2020/12/28 01:07:10;;;;;;;0.10;0.10;;;4.20;99.90;;;;;;5074820;28;20189;-76
2020/12/28 01:09:35;;;;;;;0.10;0.10;;;4.30;99.90;;;;;;5075028;28;20185;-77
2020/12/28 01:12:01;;;;;;;0.13;0.13;;;4.30;99.90;;;;;;5075560;28;20837;-77
2020/12/28 01:14:27;;;;;;;0.20;0.20;;;4.30;99.90;;;;;;5074511;28;20232;-77
2020/12/28 01:16:52;;;;;;;0.20;0.10;;;4.30;99.90;;;;;;5074907;28;20211;-77
2020/12/28 01:19:18;;;;;;;0.20;0.20;;;4.30;99.90;;;;;;5075551;28;20213;-77
2020/12/28 01:21:44;;;;;;;0.20;0.20;;;4.30;99.90;;;;;;5073740;28;20185;-77
2020/12/28 01:24:09;;;;;;;0.10;0.10;;;4.30;99.90;;;;;;5074617;28;20283;-77
2020/12/28 01:26:35;;;;;;;0.10;0.10;;;4.40;99.90;;;;;;5075388;28;20200;-77
2020/12/28 01:29:00;;;;;;;0.10;0.10;;;4.30;99.90;;;;;;5076820;28;20647;-77
2020/12/28 01:31:26;;;;;;;0.10;0.10;;;4.30;99.90;;;;;;5076312;28;20267;-77
2020/12/28 01:33:51;;;;;;;0.10;0.10;;;4.20;99.90;;;;;;5074929;28;20719;-77
2020/12/28 01:36:17;;;;;;;0.10;0.10;;;4.30;99.90;;;;;;5072550;28;20209;-76
2020/12/28 01:38:42;;;;;;;0.10;0.10;;;4.30;99.90;;;;;;5075553;28;20205;-77
2020/12/28 01:41:08;;;;;;;0.10;0.10;;;4.30;99.90;;;;;;5075441;28;20190;-77
2020/12/28 01:43:34;;;;;;;0.10;0.10;;;4.30;99.90;;;;;;5076588;28;20193;-76
2020/12/28 01:46:00;;;;;;;0.10;0.10;;;4.40;99.90;;;;;;5072905;28;20656;-76
2020/12/28 01:48:28;;;;;;;0.10;0.10;;;4.30;99.90;;;;;;5076176;28;20708;-77
2020/12/28 01:50:54;;;;;;;0.13;0.13;;;4.40;99.90;;;;;;5075345;28;20193;-77
2020/12/28 01:53:20;;;;;;;0.10;0.10;;;4.30;99.90;;;;;;5075917;28;20210;-76
2020/12/28 01:55:48;;;;;;;0.20;0.20;;;4.30;99.90;;;;;;5075063;28;21196;-77
2020/12/28 01:58:14;;;;;;;0.20;0.20;;;4.30;99.90;;;;;;5074296;28;20213;-77
2020/12/28 02:00:40;;;;;;;0.20;0.10;;;4.20;99.90;;;;;;5074131;28;20193;-77
2020/12/28 02:03:09;;;;;;;0.17;0.10;;;4.20;99.90;;;;;;5075520;28;20185;-76
2020/12/28 02:05:36;;;;;;;0.10;0.10;;;4.20;99.90;;;;;;5072059;28;20292;-77
2020/12/28 02:08:02;;;;;;;0.20;0.20;;;4.20;99.90;;;;;;5072067;28;20200;-77
2020/12/28 02:10:28;;;;;;;0.10;0.10;;;4.10;99.90;;;;;;5074815;28;20251;-76
2020/12/28 02:12:53;;;;;;;0.10;0.10;;;4.10;99.90;;;;;;5074841;28;20193;-77
2020/12/28 02:15:19;;;;;;;0.20;0.20;;;4.10;99.90;;;;;;5072786;28;21039;-77
2020/12/28 02:17:46;;;;;;;0.17;0.17;;;4.10;99.90;;;;;;5073728;28;20682;-77
2020/12/28 02:20:12;;;;;;;0.10;0.10;;;4.10;99.90;;;;;;5073811;28;20185;-76
2020/12/28 02:22:39;;;;;;;0.17;0.17;;;4.00;99.90;;;;;;5071560;28;20189;-77
2020/12/28 02:25:05;;;;;;;0.47;0.30;;;4.10;99.90;;;;;;5073656;28;20257;-76
2020/12/28 02:27:31;;;;;;;0.10;0.10;;;4.10;99.90;;;;;;5071775;28;20196;-77
2020/12/28 02:29:56;;;;;;;0.20;0.20;;;4.00;99.90;;;;;;5069152;28;20198;-77
2020/12/28 02:32:22;;;;;;;0.20;0.20;;;4.10;99.90;;;;;;5073068;28;20189;-76
2020/12/28 02:34:47;;;;;;;0.20;0.20;;;4.10;99.90;;;;;;5074528;28;20247;-77
2020/12/28 02:37:13;;;;;;;0.30;0.20;;;4.10;99.90;;;;;;5072634;28;20681;-77
2020/12/28 02:39:38;;;;;;;0.20;0.20;;;4.10;99.90;;;;;;5074186;28;20653;-77
2020/12/28 02:42:04;;;;;;;0.20;0.20;;;4.20;99.90;;;;;;5074150;28;20185;-76
2020/12/28 02:44:30;;;;;;;0.60;0.30;;;4.20;99.90;;;;;;5072458;28;20192;-76
2020/12/28 02:46:55;;;;;;;0.20;0.20;;;4.20;99.90;;;;;;5073393;28;20189;-77
2020/12/28 02:49:21;;;;;;;0.30;0.30;;;4.20;99.90;;;;;;5073114;28;20189;-77
2020/12/28 02:51:46;;;;;;;0.10;0.10;;;4.10;99.90;;;;;;5072726;28;20197;-77
2020/12/28 02:54:12;;;;;;;0.20;0.20;;;4.10;99.90;;;;;;5073537;28;20223;-76
2020/12/28 02:56:37;;;;;;;0.47;0.23;;;4.10;99.90;;;;;;5072864;28;20209;-77
2020/12/28 02:59:03;;;;;;;0.13;0.13;;;4.00;99.90;;;;;;5072539;28;20235;-77
2020/12/28 03:01:28;;;;;;;0.20;0.20;;;4.10;99.90;;;;;;5076727;28;20215;-76
2020/12/28 03:03:54;;;;;;;0.10;0.10;;;4.10;99.90;;;;;;5074476;28;20190;-76
2020/12/28 03:06:19;;;;;;;0.20;0.20;;;4.00;99.90;;;;;;5076113;28;20259;-77
2020/12/28 03:08:45;;;;;;;0.10;0.10;;;4.00;99.90;;;;;;5075012;28;20186;-76
2020/12/28 03:11:11;;;;;;;0.10;0.10;;;4.00;99.90;;;;;;5075308;28;20268;-76
2020/12/28 03:13:36;;;;;;;0.10;0.10;;;4.00;99.90;;;;;;5074007;28;20257;-77
2020/12/28 03:16:02;;;;;;;0.10;0.10;;;3.90;99.90;;;;;;5075135;28;20627;-77
2020/12/28 03:18:27;;;;;;;0.30;0.20;;;4.00;99.90;;;;;;5076181;28;20289;-77
2020/12/28 03:20:53;;;;;;;0.17;0.17;;;4.00;99.90;;;;;;5075493;28;20260;-77
2020/12/28 03:23:18;;;;;;;0.10;0.10;;;4.00;99.90;;;;;;5074056;28;20276;-75
2020/12/28 03:25:44;;;;;;;0.20;0.20;;;4.10;99.90;;;;;;5075364;28;20201;-77
2020/12/28 03:28:10;;;;;;;0.20;0.20;;;4.10;99.90;;;;;;5077493;28;20541;-77
2020/12/28 03:30:35;;;;;;;0.20;0.20;;;4.00;99.90;;;;;;5074613;28;20197;-77
2020/12/28 03:33:01;;;;;;;0.10;0.10;;;4.00;99.90;;;;;;5074843;28;20193;-77
2020/12/28 03:35:26;;;;;;;0.20;0.20;;;3.90;99.90;;;;;;5075553;28;20224;-76
2020/12/28 03:37:52;;;;;;;0.20;0.20;;;3.90;99.90;;;;;;5075386;28;20277;-76
2020/12/28 03:40:17;;;;;;;0.20;0.20;;;3.80;99.90;;;;;;5074930;28;20220;-77
2020/12/28 03:42:43;;;;;;;0.20;0.20;;;3.90;99.90;;;;;;5075821;28;20645;-77
2020/12/28 03:45:08;;;;;;;0.30;0.30;;;3.80;99.90;;;;;;5075297;28;20206;-76
2020/12/28 03:47:34;;;;;;;0.30;0.30;;;3.60;99.90;;;;;;5076528;28;20263;-76
2020/12/28 03:49:59;;;;;;;0.47;0.33;;;3.30;99.90;;;;;;5075348;28;20194;-77
2020/12/28 03:52:25;;;;;;;0.30;0.30;;;3.00;99.90;;;;;;5074187;28;20189;-76
2020/12/28 03:54:51;;;;;;;0.40;0.30;;;2.80;99.90;;;;;;5074882;28;20583;-76
2020/12/28 03:57:16;;;;;;;0.70;0.50;;;2.70;99.90;;;;;;5075342;28;20188;-76
2020/12/28 03:59:42;;;;;;;2.37;0.50;;;2.70;99.90;;;;;;5075992;28;20224;-77
2020/12/28 04:02:07;;;;;;;0.20;0.20;;;2.70;99.90;;;;;;5076854;28;20180;-77
2020/12/28 04:04:33;;;;;;;0.37;0.37;;;2.70;99.90;;;;;;5076319;28;20528;-77
2020/12/28 04:06:58;;;;;;;0.40;0.40;;;2.80;99.90;;;;;;5076487;28;20216;-76
2020/12/28 04:09:24;;;;;;;0.30;0.30;;;2.90;99.90;;;;;;5075957;28;20188;-76
2020/12/28 04:11:50;;;;;;;0.30;0.30;;;2.90;99.90;;;;;;5075825;28;20193;-77
2020/12/28 04:14:15;;;;;;;0.50;0.50;;;2.90;99.90;;;;;;5076521;28;20205;-76
2020/12/28 04:16:41;;;;;;;1.60;0.60;;;2.90;99.90;;;;;;5073659;28;20201;-76
2020/12/28 04:19:06;;;;;;;1.23;0.60;;;3.00;99.90;;;;;;5075854;28;20231;-77
2020/12/28 04:21:32;;;;;;;0.37;0.37;;;3.00;99.90;;;;;;5076098;28;20220;-77
2020/12/28 04:23:58;;;;;;;0.40;0.40;;;3.00;99.90;;;;;;5075217;28;20201;-76
2020/12/28 04:26:23;;;;;;;0.67;0.50;;;3.00;99.90;;;;;;5074615;28;20212;-76
2020/12/28 04:28:49;;;;;;;0.63;0.50;;;3.00;99.90;;;;;;5075298;28;20201;-77
2020/12/28 04:31:14;;;;;;;0.30;0.30;;;3.00;99.90;;;;;;5075815;28;20272;-77
2020/12/28 04:33:40;;;;;;;0.33;0.33;;;3.10;99.90;;;;;;5074889;28;20276;-77
2020/12/28 04:36:05;;;;;;;0.77;0.77;;;3.10;99.90;;;;;;5073729;28;20645;-76
2020/12/28 04:38:31;;;;;;;0.63;0.53;;;3.10;99.90;;;;;;5074194;28;20213;-76
2020/12/28 04:40:57;;;;;;;0.40;0.37;;;3.10;99.90;;;;;;5075514;28;20687;-77
2020/12/28 04:43:26;;;;;;;0.40;0.40;;;3.00;99.90;;;;;;5074304;28;20185;-77
2020/12/28 04:46:03;;;;;;;0.33;0.33;;;3.10;99.90;;;;;;5073738;28;20598;-76
2020/12/28 04:48:32;;;;;;;0.47;0.40;;;3.10;99.90;;;;;;5081992;28;20195;-76
2020/12/28 04:50:59;;;;;;;0.20;0.20;;;3.10;99.90;;;;;;5072638;28;20654;-77
2020/12/28 04:53:26;;;;;;;0.30;0.30;;;3.20;99.90;;;;;;5075416;28;20200;-77
2020/12/28 04:55:52;;;;;;;0.30;0.30;;;3.20;99.90;;;;;;5075919;28;20745;-76
2020/12/28 04:58:17;;;;;;;0.50;0.50;;;3.30;99.90;;;;;;5072918;28;20299;-77
2020/12/28 05:00:46;;;;;;;0.30;0.30;;;3.30;99.90;;;;;;5073506;28;20193;-77
2020/12/28 05:03:13;;;;;;;0.60;0.60;;;3.30;99.90;;;;;;5075484;28;20533;-77
2020/12/28 05:05:45;;;;;;;0.30;0.30;;;3.30;99.90;;;;;;5074967;28;20299;-77
2020/12/28 05:08:13;;;;;;;0.50;0.50;;;3.20;99.90;;;;;;5076334;28;20552;-79
2020/12/28 05:10:39;;;;;;;0.40;0.40;;;3.10;99.90;;;;;;5074812;28;20193;-78
2020/12/28 05:13:12;;;;;;;0.50;0.50;;;3.10;99.90;;;;;;5075727;28;20186;-78
2020/12/28 05:15:48;;;;;;;0.87;0.63;;;3.10;99.90;;;;;;5074663;28;20805;-78
2020/12/28 05:18:15;;;;;;;0.30;0.30;;;3.10;99.90;;;;;;5073760;28;20854;-74
2020/12/28 05:20:43;;;;;;;0.40;0.30;;;3.10;99.90;;;;;;5071998;28;20189;-76
2020/12/28 05:23:09;;;;;;;0.80;0.70;;;3.00;99.90;;;;;;5074447;28;20182;-76
2020/12/28 05:25:36;;;;;;;1.27;1.20;;;2.90;99.90;;;;;;5072760;28;20911;-75
2020/12/28 05:28:03;;;;;;;0.70;0.67;;;2.80;99.90;;;;;;5072449;28;20635;-78
2020/12/28 05:30:33;;;;;;;1.17;0.50;;;2.60;99.90;;;;;;5073692;28;20185;-79
2020/12/28 05:33:03;;;;;;;0.60;0.60;;;2.50;99.90;;;;;;5074894;28;20554;-78
2020/12/28 05:35:31;;;;;;;0.93;0.70;;;2.50;99.90;;;;;;5072018;28;20214;-76
2020/12/28 05:37:59;;;;;;;0.53;0.47;;;2.50;99.90;;;;;;5072946;28;20190;-76
2020/12/28 05:40:26;;;;;;;0.83;0.70;;;2.40;99.90;;;;;;5074745;28;20188;-79
2020/12/28 05:42:53;;;;;;;0.97;0.70;;;2.30;99.90;;;;;;5072051;28;20870;-76
2020/12/28 05:45:19;;;;;;;0.40;0.40;;;2.30;99.90;;;;;;5072826;28;20201;-76
2020/12/28 05:47:54;;;;;;;0.60;0.50;;;2.30;99.90;;;;;;5074571;28;20177;-78
2020/12/28 05:50:22;;;;;;;1.10;0.77;;;2.20;99.90;;;;;;5072567;28;20169;-76
2020/12/28 05:52:53;;;;;;;0.97;0.63;;;2.20;99.90;;;;;;5073942;28;20184;-76
2020/12/28 05:55:21;;;;;;;0.97;0.67;;;2.20;99.90;;;;;;5072922;28;20206;-79
2020/12/28 05:57:46;;;;;;;0.60;0.60;;;2.20;99.90;;;;;;5073045;28;20189;-76
2020/12/28 06:00:12;;;;;;;1.77;0.80;;;2.30;99.90;;;;;;5076621;28;20242;-79
2020/12/28 06:02:41;;;;;;;0.50;0.50;;;2.30;99.90;;;;;;5072570;28;20655;-75
2020/12/28 06:05:11;;;;;;;0.60;0.47;;;2.40;99.90;;;;;;5073725;28;20216;-78
2020/12/28 06:07:37;;;;;;;1.30;1.07;;;2.40;99.90;;;;;;5074811;28;20670;-76
2020/12/28 06:10:05;;;;;;;0.67;0.60;;;2.40;99.90;;;;;;5073841;28;20271;-78
2020/12/28 06:12:31;;;;;;;0.50;0.50;;;2.40;99.90;;;;;;5074253;28;20259;-76
2020/12/28 06:14:57;;;;;;;0.90;0.83;;;2.30;99.90;;;;;;5072917;28;20248;-76
2020/12/28 06:17:32;;;;;;;0.53;0.43;;;2.20;99.90;;;;;;5080448;28;20215;-77
2020/12/28 06:20:06;;;;;;;1.07;0.80;;;2.20;99.90;;;;;;5081106;28;20557;-76
2020/12/28 06:22:32;;;;;;;1.10;1.00;;;2.20;99.90;;;;;;5072724;28;20248;-76
2020/12/28 06:25:04;;;;;;;0.80;0.77;;;2.10;99.90;;;;;;5074259;28;20275;-76
2020/12/28 06:27:35;;;;;;;0.83;0.47;;;2.10;99.90;;;;;;5073771;28;20769;-76
2020/12/28 06:30:22;;;;;;;2.50;0.83;;;2.00;99.90;;;;;;5074720;28;20185;-79
2020/12/28 06:32:52;;;;;;;0.47;0.47;;;2.00;99.90;;;;;;5073616;28;20185;-77
2020/12/28 06:35:18;;;;;;;1.40;0.90;;;2.00;99.90;;;;;;5090772;28;20224;-79
2020/12/28 06:37:50;;;;;;;0.57;0.50;;;2.00;99.90;;;;;;5077285;28;20212;-77
2020/12/28 06:40:32;;;;;;;0.60;0.60;;;2.00;99.90;;;;;;5076094;28;20195;-76
2020/12/28 06:43:15;;;;;;;0.50;0.43;;;2.10;99.90;;;;;;5077988;28;20180;-80
2020/12/28 06:45:44;;;;;;;1.03;0.63;;;2.20;99.90;;;;;;5076170;28;20323;-76
2020/12/28 06:48:26;;;;;;;0.40;0.40;;;2.30;99.90;;;;;;5076681;28;20192;-78
2020/12/28 06:50:55;;;;;;;0.60;0.60;;;2.50;99.90;;;;;;5077506;28;20216;-75
2020/12/28 06:53:24;;;;;;;1.00;0.83;;;2.60;99.90;;;;;;5084844;28;20189;-77
2020/12/28 06:55:50;;;;;;;0.53;0.53;;;2.60;99.90;;;;;;5077224;28;20201;-74
2020/12/28 06:58:16;;;;;;;0.70;0.70;;;2.50;99.90;;;;;;5077598;28;20203;-74
2020/12/28 07:00:41;;;;;;;1.13;0.63;;;2.50;99.90;;;;;;5076858;28;20181;-73
2020/12/28 07:03:12;;;;;;;1.10;0.93;;;2.50;99.90;;;;;;5077201;28;20260;-76
2020/12/28 07:05:39;;;;;;;0.50;0.43;;;2.40;99.90;;;;;;5073999;28;20216;-74
2020/12/28 07:08:05;;;;;;;1.17;1.03;;;2.30;99.90;;;;;;5076166;28;20178;-73
2020/12/28 07:10:30;;;;;;;1.00;0.93;;;2.20;99.90;;;;;;5075790;28;20191;-74
2020/12/28 07:13:06;;;;;;;1.07;0.87;;;2.20;99.90;;;;;;5076646;28;20243;-73
2020/12/28 07:15:32;;;;;;;1.20;1.07;;;2.20;99.90;;;;;;5077145;28;20220;-74
2020/12/28 07:18:08;;;;;;;1.23;1.13;;;2.10;99.90;;;;;;5076466;28;20186;-74
2020/12/28 07:20:34;;;;;;;1.27;0.87;;;2.20;99.90;;;;;;5082365;28;20677;-74
2020/12/28 07:22:59;;;;;;;1.83;1.30;;;2.30;99.90;;;;;;5074343;28;20272;-75
2020/12/28 07:25:25;;;;;;;0.73;0.70;;;2.20;99.90;;;;;;5075434;28;20208;-72
2020/12/28 07:27:54;;;;;;;3.20;1.80;;;2.20;99.90;;;;;;5076448;28;20209;-71
2020/12/28 07:30:19;;;;;;;6.67;4.30;;;2.20;99.90;;;;;;5077247;28;20177;-77
2020/12/28 07:32:45;;;;;;;1.83;1.30;;;2.20;99.90;;;;;;5078267;28;20257;-75
2020/12/28 07:35:11;;;;;;;11.47;5.77;;;2.20;99.90;;;;;;5079490;28;20200;-77
2020/12/28 07:37:41;;;;;;;32.77;15.20;;;2.20;99.90;;;;;;5077416;28;20255;-76
2020/12/28 07:40:07;;;;;;;47.30;21.63;;;2.20;99.90;;;;;;5077578;28;20551;-78
2020/12/28 07:42:33;;;;;;;24.10;13.33;;;2.30;99.90;;;;;;5074489;28;20189;-76
2020/12/28 07:45:01;;;;;;;3.00;2.70;;;2.30;99.90;;;;;;5073385;28;20212;-77
2020/12/28 07:47:37;;;;;;;4.87;3.60;;;2.30;99.90;;;;;;5074371;28;20192;-77
2020/12/28 07:50:04;;;;;;;3.77;2.90;;;2.40;99.90;;;;;;5076325;28;20224;-80
2020/12/28 07:52:34;;;;;;;5.07;3.60;;;2.40;99.90;;;;;;5075276;28;20249;-77
2020/12/28 07:55:03;;;;;;;2.90;1.97;;;2.50;99.90;;;;;;5077171;28;20205;-76
2020/12/28 07:57:43;;;;;;;2.10;1.23;;;2.50;99.90;;;;;;5074987;28;20199;-75
2020/12/28 08:00:15;;;;;;;10.30;7.70;;;2.50;99.90;;;;;;5076026;28;20208;-78
2020/12/28 08:02:59;;;;;;;7.33;5.03;;;2.40;99.90;;;;;;5073756;28;20203;-77
2020/12/28 08:05:26;;;;;;;19.37;13.63;;;2.30;99.90;;;;;;5072309;28;20285;-74
2020/12/28 08:07:51;;;;;;;3.43;2.67;;;2.30;99.90;;;;;;5074228;28;20189;-73
2020/12/28 08:10:17;;;;;;;2.57;1.43;;;2.30;99.90;;;;;;5074890;28;20200;-78
2020/12/28 08:12:51;;;;;;;11.43;5.60;;;2.20;99.90;;;;;;5075405;28;20189;-75
2020/12/28 08:15:32;;;;;;;8.17;5.80;;;2.00;99.90;;;;;;5076855;28;20392;-73
2020/12/28 08:18:11;;;;;;;3.00;2.40;;;2.00;99.90;;;;;;5072043;28;20270;-76
2020/12/28 08:20:39;;;;;;;1.30;1.20;;;2.00;99.90;;;;;;5081177;28;20172;-77
2020/12/28 08:23:05;;;;;;;2.60;2.10;;;1.90;99.90;;;;;;5080817;28;20181;-76
2020/12/28 08:25:31;;;;;;;1.30;1.20;;;1.90;99.90;;;;;;5076975;28;20210;-76
2020/12/28 08:27:59;;;;;;;1.27;1.07;;;1.90;99.90;;;;;;5079521;28;20303;-77
2020/12/28 08:30:26;;;;;;;0.77;0.77;;;1.80;99.90;;;;;;5077402;28;20227;-78
2020/12/28 08:32:51;;;;;;;1.37;1.27;;;1.80;99.90;;;;;;5078554;28;20185;-79
2020/12/28 08:35:17;;;;;;;1.13;1.03;;;1.70;99.90;;;;;;5075992;28;20208;-78
2020/12/28 08:37:47;;;;;;;2.87;1.60;;;1.70;99.90;;;;;;5077317;28;20181;-78
2020/12/28 08:40:18;;;;;;;1.80;1.70;;;1.70;99.90;;;;;;5079103;28;20200;-79
2020/12/28 08:42:44;;;;;;;1.67;1.30;;;1.60;99.90;;;;;;5076418;28;20256;-79
2020/12/28 08:45:23;;;;;;;2.60;1.73;;;1.50;99.90;;;;;;5075900;28;20294;-80
2020/12/28 08:47:54;;;;;;;1.63;1.33;;;1.50;99.90;;;;;;5077380;28;20306;-78
2020/12/28 08:50:20;;;;;;;1.50;1.33;;;1.50;99.90;;;;;;5078832;28;20192;-79
2020/12/28 08:52:57;;;;;;;1.87;1.67;;;1.50;99.90;;;;;;5074777;28;20583;-78
2020/12/28 08:55:23;;;;;;;2.07;1.37;;;1.50;99.90;;;;;;5076340;28;20224;-78
2020/12/28 08:57:54;;;;;;;7.93;6.07;;;1.50;99.90;;;;;;5072699;28;20186;-76
2020/12/28 09:00:20;;;;;;;1.97;1.47;;;1.50;99.90;;;;;;5070598;28;20185;-76
2020/12/28 09:02:54;;;;;;;3.47;2.33;;;1.50;99.90;;;;;;5071940;28;20181;-77
2020/12/28 09:05:21;;;;;;;1.13;1.00;;;1.60;99.90;;;;;;5074946;28;20212;-77
2020/12/28 09:07:47;;;;;;;1.43;1.33;;;1.60;99.90;;;;;;5079554;28;21003;-77
2020/12/28 09:10:14;;;;;;;1.53;1.43;;;1.70;99.90;;;;;;5080120;28;20862;-78
2020/12/28 09:12:40;;;;;;;4.20;3.23;;;1.70;99.90;;;;;;5079382;28;20184;-78
2020/12/28 09:15:06;;;;;;;2.17;1.97;;;1.70;99.90;;;;;;5081261;28;20608;-78
2020/12/28 09:17:32;;;;;;;4.23;3.20;;;1.80;99.90;;;;;;5080375;28;20188;-77
2020/12/28 09:19:58;;;;;;;2.80;2.37;;;1.80;99.90;;;;;;5078981;28;20219;-78
2020/12/28 09:22:23;;;;;;;2.63;1.83;;;1.80;99.90;;;;;;5076410;28;20193;-78
2020/12/28 09:24:49;;;;;;;1.63;1.53;;;1.90;99.90;;;;;;5080426;28;20231;-78
2020/12/28 09:27:15;;;;;;;1.23;1.13;;;2.00;99.90;;;;;;5078631;28;20259;-78
2020/12/28 09:29:40;;;;;;;2.00;1.13;;;2.00;99.90;;;;;;5078413;28;20240;-78
2020/12/28 09:32:06;;;;;;;1.17;0.97;;;2.00;99.90;;;;;;5076973;28;20268;-78
2020/12/28 09:34:31;;;;;;;1.40;1.23;;;2.10;99.90;;;;;;5078744;28;20852;-78
2020/12/28 09:37:01;;;;;;;1.27;1.17;;;2.20;99.90;;;;;;5079610;28;20211;-78
2020/12/28 09:39:27;;;;;;;2.00;1.27;;;2.40;99.90;;;;;;5080166;28;20208;-78
2020/12/28 09:41:52;;;;;;;1.83;1.70;;;2.50;99.90;;;;;;5081236;28;20192;-78
2020/12/28 09:44:19;;;;;;;0.90;0.90;;;2.60;99.90;;;;;;5078189;28;20181;-78
2020/12/28 09:46:44;;;;;;;2.30;1.67;;;2.60;99.90;;;;;;5077968;28;20204;-77
2020/12/28 09:49:10;;;;;;;1.37;1.23;;;2.70;99.90;;;;;;5079965;28;20273;-78
2020/12/28 09:51:35;;;;;;;1.83;1.63;;;2.80;99.90;;;;;;5080742;28;20193;-78
2020/12/28 09:54:01;;;;;;;1.67;1.23;;;2.80;99.90;;;;;;5077247;28;20308;-78
2020/12/28 09:56:27;;;;;;;2.10;1.47;;;2.90;99.90;;;;;;5075630;28;20216;-78
2020/12/28 09:58:52;;;;;;;1.37;1.10;;;2.90;99.90;;;;;;5074887;28;20213;-78
2020/12/28 10:01:18;;;;;;;1.33;1.00;;;3.00;99.90;;;;;;5072955;28;20344;-78
2020/12/28 10:03:43;;;;;;;1.67;1.27;;;3.00;99.90;;;;;;5073511;28;20200;-78
2020/12/28 10:06:31;;;;;;;1.53;1.00;;;3.10;99.90;;;;;;5074988;28;20305;-78
2020/12/28 10:09:00;;;;;;;0.93;0.83;;;3.10;99.90;;;;;;5077532;28;20188;-78
2020/12/28 10:11:25;;;;;;;1.53;1.20;;;3.10;99.90;;;;;;5079568;28;20186;-78
2020/12/28 10:13:51;;;;;;;1.10;1.00;;;3.10;99.90;;;;;;5079517;28;20672;-78
2020/12/28 10:16:24;;;;;;;2.47;1.30;;;3.20;99.90;;;;;;5079024;28;20239;-76
2020/12/28 10:18:51;;;;;;;1.80;1.37;;;3.20;99.90;;;;;;5078687;28;20209;-79
2020/12/28 10:21:16;;;;;;;1.53;1.20;;;3.40;99.90;;;;;;5079785;28;20980;-78
2020/12/28 10:23:42;;;;;;;3.57;1.30;;;3.40;99.90;;;;;;5079220;28;20323;-76
2020/12/28 10:26:17;;;;;;;2.90;1.90;;;3.50;99.90;;;;;;5080061;28;20233;-78
2020/12/28 10:28:43;;;;;;;1.23;0.80;;;3.50;99.90;;;;;;5078534;28;20190;-77
2020/12/28 10:31:11;;;;;;;0.77;0.77;;;3.50;99.90;;;;;;5078318;28;20204;-78
2020/12/28 10:33:38;;;;;;;1.37;1.00;;;3.50;99.90;;;;;;5080266;28;20554;-78
2020/12/28 10:36:04;;;;;;;1.43;1.20;;;3.40;99.90;;;;;;5080111;28;20393;-78
2020/12/28 10:38:29;;;;;;;0.90;0.70;;;3.40;99.90;;;;;;5079826;28;20286;-78
2020/12/28 10:40:55;;;;;;;4.47;3.17;;;3.50;99.90;;;;;;5079974;28;21028;-81
2020/12/28 10:43:20;;;;;;;3.23;2.37;;;3.60;99.90;;;;;;5077286;28;20189;-78
2020/12/28 10:45:46;;;;;;;2.87;2.63;;;3.70;99.90;;;;;;5078329;28;20286;-78
2020/12/28 10:48:12;;;;;;;2.47;1.97;;;3.80;99.90;;;;;;5077541;28;20174;-76
2020/12/28 10:50:37;;;;;;;2.90;2.60;;;4.00;99.90;;;;;;5077829;28;20193;-75
2020/12/28 10:53:03;;;;;;;2.27;1.73;;;4.10;99.90;;;;;;5081441;28;20199;-78
2020/12/28 10:55:28;;;;;;;1.53;1.43;;;4.20;99.90;;;;;;5083447;28;20209;-78
2020/12/28 10:57:54;;;;;;;2.47;1.80;;;4.20;99.90;;;;;;5080421;28;20216;-78
2020/12/28 11:00:20;;;;;;;3.03;2.47;;;4.30;99.90;;;;;;5077595;28;20294;-77
2020/12/28 11:02:45;;;;;;;4.20;3.77;;;4.30;99.90;;;;;;5080153;28;20189;-77
2020/12/28 11:05:11;;;;;;;5.80;5.00;;;4.40;99.90;;;;;;5078715;28;20212;-77
2020/12/28 11:07:36;;;;;;;3.33;3.03;;;4.50;99.90;;;;;;5074180;28;20775;-78
2020/12/28 11:10:03;;;;;;;1.83;1.37;;;4.60;99.90;;;;;;5077961;28;20187;-78
2020/12/28 11:12:29;;;;;;;1.77;1.23;;;4.60;99.90;;;;;;5079827;28;20203;-78
2020/12/28 11:14:54;;;;;;;1.73;1.63;;;4.60;99.90;;;;;;5078716;28;20757;-77
2020/12/28 11:17:20;;;;;;;2.53;2.30;;;4.60;99.90;;;;;;5080401;28;20189;-78
2020/12/28 11:19:45;;;;;;;3.27;2.97;;;4.70;99.90;;;;;;5078883;28;20216;-77
2020/12/28 11:22:11;;;;;;;3.20;2.13;;;4.70;99.90;;;;;;5083615;28;20189;-78
2020/12/28 11:24:36;;;;;;;2.37;1.80;;;4.80;99.90;;;;;;5088837;28;20213;-77
2020/12/28 11:27:02;;;;;;;3.37;3.07;;;4.90;99.90;;;;;;5085858;28;20196;-77
2020/12/28 11:29:27;;;;;;;3.10;2.20;;;5.00;99.90;;;;;;5074813;28;20200;-77
2020/12/28 11:31:53;;;;;;;2.97;2.57;;;5.10;99.90;;;;;;5084057;28;20200;-78
2020/12/28 11:34:18;;;;;;;2.33;1.30;;;5.20;99.90;;;;;;5079865;28;20189;-77
2020/12/28 11:36:44;;;;;;;1.50;1.40;;;5.30;99.90;;;;;;5072602;28;20227;-78
2020/12/28 11:39:11;;;;;;;1.33;1.23;;;5.30;99.90;;;;;;5076819;28;20577;-78
2020/12/28 11:41:38;;;;;;;1.53;1.43;;;5.30;99.90;;;;;;5071656;28;20182;-78
2020/12/28 11:44:04;;;;;;;1.07;0.93;;;5.30;99.90;;;;;;5072181;28;20670;-78
2020/12/28 11:46:29;;;;;;;1.30;1.00;;;5.40;99.90;;;;;;5071245;28;20210;-77
2020/12/28 11:48:55;;;;;;;1.20;1.10;;;5.40;99.90;;;;;;5077268;28;20808;-77
2020/12/28 11:51:20;;;;;;;1.03;0.90;;;5.50;99.90;;;;;;5082407;28;20546;-78
2020/12/28 11:53:47;;;;;;;2.17;1.47;;;5.50;99.90;;;;;;5083009;28;20620;-78
2020/12/28 11:56:13;;;;;;;0.60;0.60;;;5.40;99.90;;;;;;5085724;28;20196;-77
2020/12/28 11:58:43;;;;;;;1.57;1.03;;;5.40;99.90;;;;;;5074353;28;20213;-78
2020/12/28 12:01:19;;;;;;;1.57;1.47;;;5.30;99.90;;;;;;5079449;28;20235;-78
2020/12/28 12:03:49;;;;;;;2.00;0.93;;;5.30;99.90;;;;;;5076689;28;20185;-77
2020/12/28 12:06:19;;;;;;;2.03;1.50;;;5.30;99.90;;;;;;5079733;28;20202;-78
2020/12/28 12:09:34;;;;;;;0.77;0.67;;;5.20;99.90;;;;;;5079278;28;20238;-78
2020/12/28 12:11:35;;;;;;;0.73;0.73;;;5.20;99.90;;;;;;5066783;28;20194;-78
2020/12/28 12:14:00;;;;;;;1.00;0.90;;;5.20;99.90;;;;;;5075705;28;20181;-78
2020/12/28 12:16:26;;;;;;;0.80;0.57;;;5.10;99.90;;;;;;5075747;28;20976;-77
2020/12/28 12:18:52;;;;;;;0.80;0.73;;;5.20;99.90;;;;;;5081767;28;20217;-78
2020/12/28 12:21:18;;;;;;;0.60;0.60;;;5.20;99.90;;;;;;5079337;28;20188;-79
2020/12/28 12:23:44;;;;;;;0.40;0.40;;;5.20;99.90;;;;;;5080354;28;20191;-77
2020/12/28 12:26:10;;;;;;;0.73;0.50;;;5.20;99.90;;;;;;5078312;28;20219;-78
2020/12/28 12:28:36;;;;;;;0.90;0.50;;;5.20;99.90;;;;;;5080169;28;20979;-78
2020/12/28 12:31:02;;;;;;;0.67;0.67;;;5.30;99.90;;;;;;5077439;28;20197;-79
2020/12/28 12:33:28;;;;;;;0.33;0.33;;;5.30;99.90;;;;;;5076090;28;20181;-78
2020/12/28 12:35:54;;;;;;;0.70;0.70;;;5.40;99.90;;;;;;5074585;28;20851;-80
2020/12/28 12:38:20;;;;;;;0.50;0.50;;;5.40;99.90;;;;;;5076490;28;20193;-79
2020/12/28 12:40:46;;;;;;;0.80;0.60;;;5.40;99.90;;;;;;5078012;28;20180;-79
2020/12/28 12:43:12;;;;;;;0.73;0.60;;;5.50;99.90;;;;;;5075105;28;20176;-78
2020/12/28 12:45:38;;;;;;;0.40;0.40;;;5.50;99.90;;;;;;5077247;28;20245;-79
2020/12/28 12:48:03;;;;;;;0.50;0.50;;;5.50;99.90;;;;;;5078702;28;20192;-78
2020/12/28 12:50:29;;;;;;;1.53;1.33;;;5.50;99.90;;;;;;5079259;28;20207;-78
2020/12/28 12:52:55;;;;;;;0.60;0.60;;;5.60;99.90;;;;;;5080214;28;20215;-77
2020/12/28 12:55:27;;;;;;;0.30;0.30;;;5.60;99.90;;;;;;5081681;27;20561;-76
2020/12/28 12:57:52;;;;;;;0.50;0.50;;;5.60;99.90;;;;;;5080992;28;20584;-76